首页
METAR-TAF:

METAR-TAF

机场 :

巴利亚多利德, 西班牙

纬度: 41-43N, 经度: 004-51W, 海拔: 849米

当前天气观测

该预报发布于37分钟前的20:00 UTC
风速7节,风向东北
温度 14°C
湿度 94%
气压 1009 hPa
能见度10公里或以上
小雨

METAR: LEVD 062000Z AUTO 05007KT 9999 -RA ///CB 14/13 Q1009

时间: 22:37 (20:37 UTC)

预报

该预报发布于3小时和37分钟前的17:00 UTC
预报有效从06日的 18点(UTC)到 07日的 18点(UTC)
风速5节,风向多变
能见度10公里或以上
少量云层高于4000英尺
短暂存在
从 06日的 18点(UTC)到 06日的 20点(UTC)
风速10节,风向北转西北
几率 40% :
短暂存在
从 06日的 18点(UTC)到 06日的 24点(UTC)
风速15节,风向多变,有时为25节阵风
散云层高于3000英尺, 积雨云.
雷暴, 雨
几率 30% :
短暂存在
从 07日的 00点(UTC)到 07日的 18点(UTC)
能見度: 3000
散云层高于3000英尺, 塔状积云.
阵雨

TAF: LEVD 061700Z 0618/0718 VRB05KT 9999 FEW040 TX22/0618Z TN08/0706Z TEMPO 0618/0620 33010KT PROB40 TEMPO 0618/0624 VRB15G25KT TSRA SCT030CB PROB30 TEMPO 0700/0718 3000 SHRA SCT030TCU

超过4000个机场的气象观测和天气预报(METAR&TAF报告)。

可查询的气象台以黄色和红色小点在地图上表示。

将鼠标移到小点上方,可查看气象台名称。

然后点击查看天气观测和预报。

如需切换地图:点击带黑十字的绿色按钮放大地图;点击带横线的绿色按钮缩小地图;或者点击绿色箭头查看邻近地区的地图。


METAR-TAF: